Terminal Aerodrome Forecast
Issued by NWS Green Bay, WI

Home | Current Version | Previous Version | Graphics & Text | Print | Product List | Glossary On
Versions: 1 2 3 4 5 6 7 8 9 10 11 12 13 14 15 16 17 18 19 20 21 22 23 24 25 26 27 28 29 30 31
000
FTUS43 KGRB 221724
TAFGRB
TAF
KGRB 221724Z 2218/2318 26005KT P6SM SKC
     FM222200 15007KT P6SM SKC
     FM230100 18003KT P6SM FEW250
     FM230700 20003KT P6SM SCT250
     FM231400 21008KT P6SM BKN200=

USA.gov is the U.S. government's official web portal to all federal, state and local government web resources and services.